createdAt,value
2019-04-10T00:01:32.019Z,10.80
2019-04-10T00:04:02.892Z,9.33
2019-04-10T00:06:34.069Z,8.97
2019-04-10T00:09:06.769Z,7.00
2019-04-10T00:11:36.726Z,10.83
2019-04-10T00:14:08.149Z,11.07
2019-04-10T00:16:38.788Z,9.43
2019-04-10T00:19:10.664Z,10.50
2019-04-10T00:21:40.521Z,9.60
2019-04-10T00:24:11.416Z,9.83
2019-04-10T00:26:41.982Z,9.17
2019-04-10T00:29:12.016Z,9.27
2019-04-10T00:31:42.655Z,10.80
2019-04-10T00:34:12.121Z,8.10
2019-04-10T00:36:42.281Z,11.87
2019-04-10T00:39:12.635Z,9.00
2019-04-10T00:41:44.108Z,11.53
2019-04-10T00:44:13.661Z,8.97
2019-04-10T00:46:43.275Z,8.00
2019-04-10T00:49:13.479Z,8.80
2019-04-10T00:51:44.065Z,8.40
2019-04-10T00:54:14.593Z,8.60
2019-04-10T00:56:45.295Z,6.37
2019-04-10T00:59:15.797Z,9.00
2019-04-10T01:01:45.936Z,7.40
2019-04-10T01:04:16.271Z,8.80
2019-04-10T01:06:46.373Z,9.50
2019-04-10T01:09:17.312Z,7.47
2019-04-10T01:11:47.526Z,8.77
2019-04-10T01:14:17.941Z,8.10
2019-04-10T01:16:47.690Z,8.43
2019-04-10T01:19:18.014Z,8.23
2019-04-10T01:21:48.037Z,6.90
2019-04-10T01:24:17.895Z,8.80
2019-04-10T01:26:49.644Z,7.07
2019-04-10T01:29:19.727Z,8.40
2019-04-10T01:31:51.128Z,8.13
2019-04-10T01:34:21.615Z,7.93
2019-04-10T01:36:52.339Z,6.90
2019-04-10T01:39:28.612Z,7.27
2019-04-10T01:41:59.039Z,8.40
2019-04-10T01:44:28.944Z,9.20
2019-04-10T01:46:59.111Z,9.00
2019-04-10T01:49:29.424Z,8.10
2019-04-10T01:51:59.514Z,7.30
2019-04-10T01:54:29.153Z,7.03
2019-04-10T01:56:58.550Z,7.90
2019-04-10T01:59:29.991Z,7.73
2019-04-10T02:02:07.222Z,7.53
2019-04-10T02:04:39.592Z,7.10
2019-04-10T02:07:10.082Z,8.80
2019-04-10T02:09:39.430Z,5.67
2019-04-10T02:12:10.380Z,8.83
2019-04-10T02:14:40.866Z,7.97
2019-04-10T02:17:10.870Z,8.13
2019-04-10T02:19:40.630Z,6.50
2019-04-10T02:22:10.059Z,7.67
2019-04-10T02:24:41.004Z,9.10
2019-04-10T02:27:10.453Z,7.20
2019-04-10T02:29:40.575Z,10.47
2019-04-10T02:32:12.042Z,9.13
2019-04-10T02:34:43.885Z,8.97
2019-04-10T02:37:15.304Z,11.57
2019-04-10T02:39:48.344Z,10.70
2019-04-10T02:42:18.458Z,10.37
2019-04-10T02:44:50.408Z,8.60
2019-04-10T02:47:20.996Z,8.80
2019-04-10T02:49:52.186Z,11.43
2019-04-10T02:52:22.581Z,10.43
2019-04-10T02:54:53.716Z,10.20
2019-04-10T02:57:25.295Z,10.97
2019-04-10T02:59:55.809Z,11.83
2019-04-10T03:02:26.687Z,9.13
2019-04-10T03:04:57.342Z,8.17
2019-04-10T03:07:28.383Z,10.43
2019-04-10T03:10:08.867Z,9.77
2019-04-10T03:12:32.154Z,9.70
2019-04-10T03:15:03.481Z,9.83
2019-04-10T03:17:34.753Z,10.17
2019-04-10T03:20:05.749Z,10.10
2019-04-10T03:22:36.659Z,9.47
2019-04-10T03:25:06.619Z,9.20
2019-04-10T03:27:36.595Z,11.50
2019-04-10T03:30:07.574Z,10.83
2019-04-10T03:33:03.905Z,10.50
2019-04-10T03:35:35.330Z,10.10
2019-04-10T03:38:05.764Z,10.30
2019-04-10T03:40:35.979Z,10.70
2019-04-10T03:43:05.878Z,11.87
2019-04-10T03:45:35.548Z,13.93
2019-04-10T03:48:06.347Z,8.80
2019-04-10T03:50:36.634Z,10.73
2019-04-10T03:53:07.521Z,12.00
2019-04-10T03:55:37.981Z,12.50
2019-04-10T03:58:07.716Z,11.20
2019-04-10T04:00:38.370Z,13.30
2019-04-10T04:03:08.525Z,14.07
2019-04-10T04:05:39.089Z,13.27
2019-04-10T04:08:08.789Z,13.47
2019-04-10T04:10:38.938Z,13.80
2019-04-10T04:13:09.112Z,10.80
2019-04-10T04:15:38.926Z,12.70
2019-04-10T04:18:08.911Z,8.90
2019-04-10T04:20:39.227Z,11.60
2019-04-10T04:23:09.664Z,9.63
2019-04-10T04:25:39.193Z,11.53
2019-04-10T04:28:08.854Z,12.90
2019-04-10T04:30:41.922Z,12.00
2019-04-10T04:33:12.989Z,12.30
2019-04-10T04:35:42.856Z,10.43
2019-04-10T04:38:13.434Z,10.77
2019-04-10T04:40:44.247Z,11.07
2019-04-10T04:43:14.655Z,9.60
2019-04-10T04:45:44.586Z,8.43
2019-04-10T04:48:14.633Z,12.63
2019-04-10T04:50:45.715Z,9.40
2019-04-10T04:53:16.326Z,9.90
2019-04-10T04:55:47.016Z,11.77
2019-04-10T04:58:18.078Z,11.60
2019-04-10T05:00:48.614Z,9.10
2019-04-10T05:03:18.558Z,10.47
2019-04-10T05:05:48.080Z,10.50
2019-04-10T05:08:19.143Z,10.23
2019-04-10T05:10:49.684Z,8.43
2019-04-10T05:13:19.515Z,9.60
2019-04-10T05:15:51.309Z,9.47
2019-04-10T05:18:21.643Z,9.93
2019-04-10T05:20:51.103Z,5.53
2019-04-10T05:23:22.277Z,10.20
2019-04-10T05:25:52.577Z,8.97
2019-04-10T05:28:22.211Z,13.50
2019-04-10T05:30:52.656Z,12.03
2019-04-10T05:33:22.622Z,9.13
2019-04-10T05:35:52.865Z,9.73
2019-04-10T05:38:22.799Z,13.37
2019-04-10T05:40:53.100Z,8.10
2019-04-10T05:43:24.023Z,4.17
2019-04-10T05:45:55.127Z,10.80
2019-04-10T05:48:26.386Z,9.50
2019-04-10T05:51:02.292Z,8.03
2019-04-10T05:53:28.829Z,10.73
2019-04-10T05:55:58.750Z,10.97
2019-04-10T05:58:29.103Z,7.67
2019-04-10T06:01:02.008Z,9.57
2019-04-10T06:03:32.502Z,10.33
2019-04-10T06:06:02.219Z,10.47
2019-04-10T06:08:33.223Z,6.77
2019-04-10T06:11:04.502Z,10.37
2019-04-10T06:13:34.739Z,9.60
2019-04-10T06:16:05.641Z,10.10
2019-04-10T06:18:35.665Z,7.57
2019-04-10T06:21:05.411Z,9.20
2019-04-10T06:23:35.827Z,8.30
2019-04-10T06:26:06.769Z,7.50
2019-04-10T06:28:36.450Z,7.57
2019-04-10T06:31:06.293Z,7.27
2019-04-10T06:33:36.112Z,6.63
2019-04-10T06:36:06.649Z,6.80
2019-04-10T06:38:37.270Z,9.70
2019-04-10T06:41:08.182Z,8.03
2019-04-10T06:43:39.043Z,7.87
2019-04-10T06:46:10.348Z,8.17
2019-04-10T06:48:43.127Z,7.57
2019-04-10T06:51:12.847Z,8.90
2019-04-10T06:53:43.110Z,7.60
2019-04-10T06:56:13.280Z,7.60
2019-04-10T06:58:44.289Z,7.53
2019-04-10T07:01:14.954Z,7.80
2019-04-10T07:03:51.911Z,3.63
2019-04-10T07:06:21.809Z,7.30
2019-04-10T07:08:51.896Z,7.17
2019-04-10T07:11:23.409Z,7.97
2019-04-10T07:13:53.809Z,7.20
2019-04-10T07:16:26.587Z,9.47
2019-04-10T07:18:55.222Z,4.70
2019-04-10T07:21:24.646Z,7.70
2019-04-10T07:23:57.356Z,6.93
2019-04-10T07:26:37.165Z,8.97
2019-04-10T07:28:58.841Z,6.07
2019-04-10T07:31:30.324Z,6.80
2019-04-10T07:34:01.429Z,8.80
2019-04-10T07:36:32.878Z,5.20
2019-04-10T07:39:03.595Z,7.40
2019-04-10T07:41:33.448Z,5.37
2019-04-10T07:44:03.785Z,5.63
2019-04-10T07:46:34.698Z,10.17
2019-04-10T07:49:04.835Z,8.80
2019-04-10T07:51:35.000Z,6.13
2019-04-10T07:54:04.778Z,5.33
2019-04-10T07:56:35.382Z,8.20
2019-04-10T07:59:05.218Z,4.83
2019-04-10T08:01:35.444Z,6.30
2019-04-10T08:04:06.220Z,5.83
2019-04-10T08:06:37.113Z,7.70
2019-04-10T08:09:08.667Z,7.30
2019-04-10T08:11:38.482Z,6.00
2019-04-10T08:14:08.431Z,7.53
2019-04-10T08:16:39.368Z,7.00
2019-04-10T08:19:10.382Z,5.30
2019-04-10T08:21:44.372Z,7.90
2019-04-10T08:24:28.075Z,5.30
2019-04-10T08:26:57.991Z,6.23
2019-04-10T08:29:30.168Z,8.50
2019-04-10T08:32:01.694Z,6.67
2019-04-10T08:34:33.620Z,6.70
2019-04-10T08:37:03.857Z,7.23
2019-04-10T08:39:41.138Z,7.30
2019-04-10T08:42:06.463Z,7.90
2019-04-10T08:44:36.900Z,8.43
2019-04-10T08:47:06.831Z,7.80
2019-04-10T08:49:37.393Z,6.87
2019-04-10T08:52:08.299Z,7.40
2019-04-10T08:54:38.767Z,9.60
2019-04-10T08:57:09.614Z,9.30
2019-04-10T08:59:40.298Z,9.40
2019-04-10T09:02:10.147Z,8.87
2019-04-10T09:04:41.269Z,8.70
2019-04-10T09:07:11.704Z,7.80
2019-04-10T09:09:41.559Z,7.53
2019-04-10T09:12:11.568Z,7.00
2019-04-10T09:14:41.711Z,7.93
2019-04-10T09:17:13.174Z,8.80
2019-04-10T09:19:42.861Z,8.03
2019-04-10T09:22:12.858Z,8.47
2019-04-10T09:24:44.627Z,7.50
2019-04-10T09:27:15.106Z,7.73
2019-04-10T09:29:46.489Z,7.83
2019-04-10T09:32:16.627Z,8.23
2019-04-10T09:34:48.183Z,7.63
2019-04-10T09:37:18.431Z,8.70
2019-04-10T09:39:50.984Z,8.27
2019-04-10T09:42:21.436Z,6.93
2019-04-10T09:44:52.815Z,8.57
2019-04-10T09:47:23.086Z,9.50
2019-04-10T09:49:53.610Z,8.60
2019-04-10T09:52:25.784Z,9.43
2019-04-10T09:54:56.016Z,9.07
2019-04-10T09:57:26.680Z,9.17
2019-04-10T09:59:56.811Z,8.90
2019-04-10T10:02:27.536Z,6.30
2019-04-10T10:04:57.828Z,9.53
2019-04-10T10:07:28.474Z,7.30
2019-04-10T10:10:00.758Z,8.33
2019-04-10T10:12:29.772Z,8.93
2019-04-10T10:15:00.191Z,9.77
2019-04-10T10:17:30.862Z,8.43
2019-04-10T10:20:01.833Z,8.50
2019-04-10T10:22:32.010Z,10.83
2019-04-10T10:25:02.811Z,8.60
2019-04-10T10:27:33.002Z,8.17
2019-04-10T10:30:03.531Z,9.87
2019-04-10T10:32:35.075Z,9.90
2019-04-10T10:35:07.072Z,8.77
2019-04-10T10:37:36.896Z,10.70
2019-04-10T10:40:08.973Z,9.93
2019-04-10T10:42:41.196Z,10.67
2019-04-10T10:45:12.449Z,9.07
2019-04-10T10:47:42.187Z,10.00
2019-04-10T10:50:13.161Z,7.93
2019-04-10T10:52:43.840Z,10.67
2019-04-10T10:55:15.477Z,9.33
2019-04-10T10:57:45.546Z,10.57
2019-04-10T11:00:17.043Z,9.37
2019-04-10T11:02:46.959Z,6.40
2019-04-10T11:05:17.030Z,11.03
2019-04-10T11:07:48.981Z,12.83
2019-04-10T11:10:22.864Z,12.33
2019-04-10T11:12:52.174Z,11.70
2019-04-10T11:15:23.790Z,10.27
2019-04-10T11:17:56.438Z,10.00
2019-04-10T11:20:29.744Z,8.23
2019-04-10T11:23:00.453Z,9.40
2019-04-10T11:25:30.807Z,10.40
2019-04-10T11:28:04.013Z,8.40
2019-04-10T11:30:36.164Z,10.57
2019-04-10T11:33:06.195Z,9.97
2019-04-10T11:35:37.320Z,9.90
2019-04-10T11:38:10.988Z,9.20
2019-04-10T11:40:41.984Z,9.17
2019-04-10T11:43:12.560Z,10.10
2019-04-10T11:48:16.953Z,9.73
2019-04-10T11:50:46.155Z,9.83
2019-04-10T11:53:17.769Z,9.77
2019-04-10T11:55:51.112Z,8.40
2019-04-10T11:58:21.734Z,9.53
2019-04-10T12:00:54.622Z,9.30
2019-04-10T12:03:24.594Z,9.53
2019-04-10T12:05:55.589Z,8.93
2019-04-10T12:08:49.761Z,6.47
2019-04-10T12:13:30.256Z,11.50
2019-04-10T12:16:00.985Z,8.67
2019-04-10T12:18:30.954Z,7.63
2019-04-10T12:21:01.885Z,8.87
2019-04-10T12:23:32.720Z,9.60
2019-04-10T12:26:03.334Z,8.60
2019-04-10T12:28:36.089Z,7.57
2019-04-10T12:31:06.042Z,9.73
2019-04-10T12:33:35.999Z,7.83
2019-04-10T12:36:07.946Z,8.03
2019-04-10T12:38:37.650Z,8.63
2019-04-10T12:41:08.822Z,7.90
2019-04-10T12:43:38.972Z,9.37
2019-04-10T12:46:08.654Z,9.33
2019-04-10T12:48:38.900Z,8.50
2019-04-10T12:51:09.735Z,8.10
2019-04-10T12:53:40.127Z,8.40
2019-04-10T12:56:10.232Z,9.07
2019-04-10T12:58:40.570Z,6.50
2019-04-10T13:01:12.147Z,8.43
2019-04-10T13:03:43.145Z,9.10
2019-04-10T13:06:13.650Z,6.43
2019-04-10T13:08:57.099Z,8.77
2019-04-10T13:11:14.836Z,8.13
2019-04-10T13:13:46.254Z,8.30
2019-04-10T13:16:16.515Z,7.43
2019-04-10T13:18:46.850Z,7.63
2019-04-10T13:21:16.438Z,9.10
2019-04-10T13:23:46.857Z,8.50
2019-04-10T13:26:17.660Z,7.53
2019-04-10T13:28:47.706Z,7.43
2019-04-10T13:31:17.893Z,7.67
2019-04-10T13:33:48.919Z,9.10
2019-04-10T13:36:19.659Z,9.00
2019-04-10T13:38:49.272Z,21.70
2019-04-10T13:41:20.645Z,8.50
2019-04-10T13:43:50.494Z,7.60
2019-04-10T13:46:20.526Z,8.07
2019-04-10T13:48:50.455Z,7.03
2019-04-10T13:51:21.299Z,8.70
2019-04-10T13:53:52.336Z,8.03
2019-04-10T13:56:23.224Z,9.10
2019-04-10T13:58:53.106Z,7.97
2019-04-10T14:01:27.773Z,7.80
2019-04-10T14:03:58.675Z,8.77
2019-04-10T14:06:30.294Z,9.93
2019-04-10T14:09:17.852Z,8.20
2019-04-10T14:11:33.405Z,7.70
2019-04-10T14:14:04.482Z,9.30
2019-04-10T14:16:35.557Z,7.70
2019-04-10T14:19:07.691Z,8.83
2019-04-10T14:21:37.428Z,9.03
2019-04-10T14:24:09.471Z,9.77
2019-04-10T14:26:48.983Z,8.27
2019-04-10T14:29:20.625Z,9.03
2019-04-10T14:31:56.606Z,9.20
2019-04-10T14:34:30.326Z,9.20
2019-04-10T14:37:00.896Z,7.73
2019-04-10T14:39:31.460Z,9.27
2019-04-10T14:42:02.329Z,6.93
2019-04-10T14:44:32.701Z,9.80
2019-04-10T14:47:02.740Z,9.20
2019-04-10T14:49:33.406Z,11.50
2019-04-10T14:52:03.166Z,6.97
2019-04-10T14:54:33.610Z,10.93
2019-04-10T14:57:04.348Z,9.13
2019-04-10T14:59:35.868Z,8.97
2019-04-10T15:02:08.445Z,9.80
2019-04-10T15:04:38.057Z,10.60
2019-04-10T15:07:08.116Z,7.00
2019-04-10T15:09:38.156Z,8.83
2019-04-10T15:12:12.196Z,11.43
2019-04-10T15:14:42.443Z,8.30
2019-04-10T15:17:12.683Z,10.40
2019-04-10T15:19:42.923Z,10.73
2019-04-10T15:22:13.767Z,9.27
2019-04-10T15:24:44.776Z,10.77
2019-04-10T15:27:15.274Z,9.13
2019-04-10T15:29:45.240Z,9.73
2019-04-10T15:32:15.106Z,10.07
2019-04-10T15:34:46.032Z,10.73
2019-04-10T15:37:17.117Z,9.47
2019-04-10T15:39:47.394Z,8.37
2019-04-10T15:42:17.483Z,10.60
2019-04-10T15:44:48.126Z,9.63
2019-04-10T15:47:22.565Z,11.50
2019-04-10T15:49:51.649Z,10.33
2019-04-10T15:52:22.750Z,12.63
2019-04-10T15:54:53.798Z,11.37
2019-04-10T15:57:24.886Z,10.23
2019-04-10T15:59:55.029Z,9.50
2019-04-10T16:02:25.780Z,11.63
2019-04-10T16:04:57.179Z,8.67
2019-04-10T16:07:27.491Z,10.40
2019-04-10T16:10:06.757Z,9.90
2019-04-10T16:12:36.836Z,13.00
2019-04-10T16:15:06.858Z,11.90
2019-04-10T16:17:54.775Z,11.20
2019-04-10T16:20:27.372Z,9.60
2019-04-10T16:23:16.355Z,10.30
2019-04-10T16:25:52.215Z,13.87
2019-04-10T16:28:22.871Z,9.80
2019-04-10T16:30:53.518Z,10.60
2019-04-10T16:33:23.304Z,12.47
2019-04-10T16:35:54.722Z,12.73
2019-04-10T16:38:25.210Z,12.30
2019-04-10T16:40:56.333Z,11.20
2019-04-10T16:43:26.631Z,10.20
2019-04-10T16:45:57.201Z,11.20
2019-04-10T16:48:28.235Z,9.60
2019-04-10T16:50:59.590Z,10.80
2019-04-10T16:53:29.993Z,9.50
2019-04-10T16:56:01.023Z,10.97
2019-04-10T16:58:31.941Z,11.90
2019-04-10T17:01:02.295Z,8.43
2019-04-10T17:03:33.771Z,10.80
2019-04-10T17:06:04.011Z,13.20
2019-04-10T17:08:34.275Z,14.73
2019-04-10T17:11:05.147Z,10.23
2019-04-10T17:13:36.891Z,8.33
2019-04-10T17:16:07.324Z,12.37
2019-04-10T17:18:39.194Z,8.37
2019-04-10T17:21:09.304Z,10.13
2019-04-10T17:23:40.607Z,9.90
2019-04-10T17:26:10.751Z,12.60
2019-04-10T17:28:40.744Z,10.10
2019-04-10T17:31:11.062Z,13.77
2019-04-10T17:33:41.870Z,12.27
2019-04-10T17:36:12.194Z,11.70
2019-04-10T17:38:42.812Z,11.10
2019-04-10T17:41:12.586Z,9.90
2019-04-10T17:43:43.467Z,13.07
2019-04-10T17:46:13.309Z,13.13
2019-04-10T17:48:44.141Z,11.83
2019-04-10T17:51:14.247Z,12.60
2019-04-10T17:53:45.366Z,13.07
2019-04-10T17:56:15.889Z,12.03
2019-04-10T17:58:46.010Z,10.77
2019-04-10T18:01:18.772Z,12.70
2019-04-10T18:03:53.127Z,9.73
2019-04-10T18:06:19.954Z,10.60
2019-04-10T18:08:49.686Z,8.43
2019-04-10T18:11:20.346Z,9.50
2019-04-10T18:13:50.990Z,8.90
2019-04-10T18:16:20.589Z,11.00
2019-04-10T18:18:50.039Z,13.17
2019-04-10T18:21:20.478Z,12.20
2019-04-10T18:23:50.245Z,14.77
2019-04-10T18:26:21.637Z,15.60
2019-04-10T18:28:52.026Z,12.03
2019-04-10T18:31:23.986Z,12.73
2019-04-10T18:33:53.122Z,10.43
2019-04-10T18:36:22.600Z,13.67
2019-04-10T18:38:52.691Z,13.30
2019-04-10T18:41:22.687Z,13.70
2019-04-10T18:43:52.877Z,13.90
2019-04-10T18:46:24.022Z,13.93
2019-04-10T18:48:54.770Z,12.60
2019-04-10T18:51:25.791Z,15.17
2019-04-10T18:53:56.010Z,10.90
2019-04-10T18:56:29.135Z,12.47
2019-04-10T18:59:27.517Z,14.20
2019-04-10T19:02:22.106Z,13.70
2019-04-10T19:05:05.641Z,11.50
2019-04-10T19:07:36.463Z,12.93
2019-04-10T19:10:08.214Z,14.27
2019-04-10T19:12:39.080Z,13.57
2019-04-10T19:15:10.734Z,12.57
2019-04-10T19:17:41.930Z,14.10
2019-04-10T19:20:11.773Z,12.47
2019-04-10T19:22:42.838Z,13.10
2019-04-10T19:25:12.902Z,13.50
2019-04-10T19:27:42.639Z,13.67
2019-04-10T19:30:30.918Z,13.47
2019-04-10T19:33:01.718Z,14.40
2019-04-10T19:35:32.194Z,13.13
2019-04-10T19:38:03.029Z,13.90
2019-04-10T19:40:33.967Z,12.97
2019-04-10T19:43:04.002Z,15.10
2019-04-10T19:45:34.611Z,14.20
2019-04-10T19:48:05.119Z,14.43
2019-04-10T19:50:35.363Z,15.20
2019-04-10T19:53:05.701Z,11.30
2019-04-10T19:55:35.916Z,14.20
2019-04-10T19:58:06.423Z,11.10
2019-04-10T20:00:37.258Z,13.30
2019-04-10T20:03:07.758Z,12.13
2019-04-10T20:05:37.623Z,10.47
2019-04-10T20:08:07.822Z,13.23
2019-04-10T20:10:37.555Z,14.07
2019-04-10T20:13:06.999Z,14.03
2019-04-10T20:15:36.788Z,8.50
2019-04-10T20:18:08.497Z,11.50
2019-04-10T20:20:39.418Z,12.13
2019-04-10T20:23:09.807Z,11.20
2019-04-10T20:25:40.808Z,13.50
2019-04-10T20:28:10.635Z,10.70
2019-04-10T20:30:40.475Z,13.53
2019-04-10T20:33:10.428Z,15.70
2019-04-10T20:35:40.972Z,12.20
2019-04-10T20:38:11.432Z,10.30
2019-04-10T20:40:42.289Z,11.10
2019-04-10T20:43:12.961Z,10.73
2019-04-10T20:45:42.707Z,11.10
2019-04-10T20:48:12.406Z,11.57
2019-04-10T20:50:42.354Z,10.50
2019-04-10T20:53:12.627Z,11.87
2019-04-10T20:55:43.976Z,11.00
2019-04-10T20:58:15.418Z,11.80
2019-04-10T21:00:45.226Z,12.10
2019-04-10T21:03:15.643Z,11.37
2019-04-10T21:05:45.210Z,10.10
2019-04-10T21:08:15.962Z,11.30
2019-04-10T21:10:45.685Z,10.00
2019-04-10T21:13:17.060Z,10.90
2019-04-10T21:15:47.223Z,10.50
2019-04-10T21:18:17.582Z,9.70
2019-04-10T21:20:47.659Z,10.77
2019-04-10T21:23:17.211Z,10.00
2019-04-10T21:25:47.679Z,9.90
2019-04-10T21:28:18.376Z,13.07
2019-04-10T21:31:05.554Z,13.03
2019-04-10T21:34:01.314Z,11.87
2019-04-10T21:36:31.464Z,12.00
2019-04-10T21:39:01.208Z,11.37
2019-04-10T21:41:31.259Z,10.43
2019-04-10T21:44:02.297Z,11.87
2019-04-10T21:46:32.609Z,13.80
2019-04-10T21:49:03.649Z,13.03
2019-04-10T21:51:33.939Z,12.60
2019-04-10T21:54:04.398Z,12.03
2019-04-10T21:56:35.167Z,11.03
2019-04-10T21:59:05.493Z,13.07
2019-04-10T22:01:36.278Z,12.57
2019-04-10T22:04:06.433Z,13.57
2019-04-10T22:07:14.048Z,13.93
2019-04-10T22:10:01.530Z,13.20
2019-04-10T22:12:38.164Z,13.60
2019-04-10T22:15:05.122Z,14.07
2019-04-10T22:17:36.207Z,13.27
2019-04-10T22:20:07.490Z,18.10
2019-04-10T22:22:37.939Z,14.47
2019-04-10T22:25:09.153Z,13.43
2019-04-10T22:27:39.347Z,16.30
2019-04-10T22:30:10.474Z,8.70
2019-04-10T22:32:40.926Z,17.30
2019-04-10T22:35:11.010Z,11.80
2019-04-10T22:37:41.389Z,16.50
2019-04-10T22:40:11.581Z,14.13
2019-04-10T22:42:46.048Z,16.83
2019-04-10T22:45:32.789Z,15.00
2019-04-10T22:48:04.050Z,14.13
2019-04-10T22:50:34.485Z,15.90
2019-04-10T22:53:04.691Z,16.27
2019-04-10T22:55:35.713Z,15.03
2019-04-10T22:58:05.597Z,16.87
2019-04-10T23:00:35.511Z,15.50
2019-04-10T23:03:05.757Z,15.70
2019-04-10T23:05:36.503Z,16.13
2019-04-10T23:08:07.436Z,18.37
2019-04-10T23:10:37.353Z,17.50
2019-04-10T23:13:08.831Z,19.93
2019-04-10T23:15:39.885Z,12.50
2019-04-10T23:18:10.374Z,19.37
2019-04-10T23:20:40.290Z,14.37
2019-04-10T23:23:10.646Z,14.90
2019-04-10T23:25:40.817Z,17.50
2019-04-10T23:28:11.488Z,13.17
2019-04-10T23:30:42.019Z,17.43
2019-04-10T23:33:12.157Z,20.87
2019-04-10T23:35:41.644Z,16.73
2019-04-10T23:38:11.856Z,18.63
2019-04-10T23:40:43.207Z,19.07
2019-04-10T23:43:16.680Z,18.70
2019-04-10T23:45:46.075Z,20.87
2019-04-10T23:48:17.265Z,22.57
2019-04-10T23:50:48.212Z,20.10
2019-04-10T23:53:18.471Z,21.60
2019-04-10T23:55:48.590Z,20.57
2019-04-10T23:58:18.434Z,23.23
